Tombarra — MPRD6 — position and weather

sailwx.info

Track history (hours):
 
Tides and Currents Weather Stations Pressure Air Temp Water Temp Dewpoint Dewpoint Depression Visibility Wind Speed Wind Dir Waves Ship Positions

Tombarra

Last reported at 2015-Feb-01 03:33 UTC. Time now 2015-Feb-01 04:08 UTC.
Position N 57°45' E 010°57'.

Length 199 m; draft 8.6 m.

Type: Ship. MMSI: 232971000.

Date/timePositionNaut miles runAvg speedWind from/ knotsBaromVisibWave heightAir tempDewpointWater temp
2015-Feb-01 03:33N 57°45' E 010°57'1615.9
2015-Feb-01 02:33N 57°33' E 011°17'1615.8
2015-Feb-01 01:33N 57°20' E 011°32'1716.5
2015-Feb-01 00:33N 57°04' E 011°42'1716.7
2015-Jan-31 23:33N 56°49' E 011°53'1616.1
2015-Jan-31 22:33N 56°33' E 011°59'1616.0
2015-Jan-31 21:33N 56°18' E 012°07'1616.3
2015-Jan-31 20:33N 56°08' E 012°31'10 9.8
2015-Jan-31 19:33N 56°00' E 012°41'1414.5
2015-Jan-31 18:33N 55°47' E 012°52'1010.5
2015-Jan-31 17:33N 55°37' E 012°60'0 0.0
2015-Jan-31 16:33N 55°37' E 012°60'0 0.0
2015-Jan-31 15:33N 55°37' E 012°60'0 0.0
2015-Jan-31 14:33N 55°37' E 012°60'0 0.0
2015-Jan-31 13:33N 55°37' E 012°60'0 0.0
2015-Jan-31 12:33N 55°37' E 012°60'0 0.0
2015-Jan-31 11:33N 55°37' E 012°60'0 0.0
2015-Jan-31 10:33N 55°37' E 012°60'0 0.0
2015-Jan-31 09:30N 55°37' E 012°60'0 0.0
2015-Jan-31 08:33N 55°37' E 012°60'0 0.0
2015-Jan-31 07:33N 55°37' E 012°60'0 0.0
2015-Jan-31 06:33N 55°37' E 012°60'0 0.0
2015-Jan-31 05:33N 55°37' E 012°60'2 1.9
2015-Jan-31 04:33N 55°39' E 012°57'1010.1
2015-Jan-31 03:33N 55°48' E 012°50'1515.5
2015-Jan-31 02:34N 56°02' E 012°39'1110.7
2015-Jan-31 01:34N 56°09' E 012°25'10 9.8
2015-Jan-31 00:34N 56°15' E 012°10'1111.0
2015-Jan-30 23:34N 56°24' E 012°00'1111.4
2015-Jan-30 22:34N 56°35' E 011°56'1212.5
2015-Jan-30 21:34N 56°48' E 011°50'1211.7
2015-Jan-30 20:33N 56°59' E 011°43'9 9.5
2015-Jan-30 19:33N 57°07' E 011°37'1212.0
2015-Jan-30 18:34N 57°19' E 011°30'1313.2
2015-Jan-30 17:33N 57°30' E 011°18'1312.9
2015-Jan-30 16:33N 57°39' E 011°01'1313.4
2015-Jan-30 15:34N 57°47' E 010°40'1614.8
2015-Jan-30 14:27N 57°44' E 010°10'18514.2
2015-Jan-30 01:26N 55°30' E 006°20'1314.6
2015-Jan-30 00:32N 55°19' E 006°07'7114.2
2015-Jan-29 19:32N 54°18' E 005°03'1414.2
2015-Jan-29 18:33N 54°06' E 004°50'17614.6
2015-Jan-29 06:33N 51°29' E 002°41'1010.5
2015-Jan-29 05:33N 51°23' E 002°55'1211.6
2015-Jan-29 04:33N 51°20' E 003°13'0 0.5
2015-Jan-29 03:33N 51°20' E 003°13'1 1.2
2015-Jan-29 02:33N 51°19' E 003°13'0 0.0
2015-Jan-29 01:33N 51°19' E 003°13'0 0.0
2015-Jan-29 00:33N 51°19' E 003°13'0 0.0
2015-Jan-28 23:33N 51°19' E 003°13'0 0.0
2015-Jan-28 22:33N 51°19' E 003°13'0 0.0
2015-Jan-28 21:33N 51°19' E 003°13'0 0.0
2015-Jan-28 20:33N 51°19' E 003°13'0 0.0
2015-Jan-28 19:33N 51°19' E 003°13'0 0.0
2015-Jan-28 18:33N 51°19' E 003°13'0 0.0
2015-Jan-28 17:33N 51°19' E 003°13'1 0.7
2015-Jan-28 16:31N 51°18' E 003°14'0 0.0
2015-Jan-28 15:33N 51°18' E 003°14'0 0.0
2015-Jan-28 14:33N 51°18' E 003°14'0 0.0
2015-Jan-28 13:33N 51°18' E 003°14'0 0.0
2015-Jan-28 12:33N 51°18' E 003°14'0 0.0
2015-Jan-28 11:33N 51°18' E 003°14'0 0.0
2015-Jan-28 10:33N 51°18' E 003°14'0 0.0
2015-Jan-28 09:33N 51°18' E 003°14'0 0.0
2015-Jan-28 08:33N 51°18' E 003°14'0 0.0
2015-Jan-28 07:33N 51°18' E 003°14'0 0.0
2015-Jan-28 06:33N 51°18' E 003°14'0 0.0
2015-Jan-28 05:33N 51°18' E 003°14'0 0.0
2015-Jan-28 04:33N 51°18' E 003°14'1 0.8
2015-Jan-28 03:33N 51°19' E 003°14'1 1.4
2015-Jan-28 02:33N 51°20' E 003°13'3 3.1
2015-Jan-28 01:33N 51°23' E 003°11'8 7.8
2015-Jan-28 00:33N 51°23' E 002°58'5 4.9
2015-Jan-27 23:33N 51°22' E 002°51'9 8.6
2015-Jan-27 22:33N 51°22' E 002°37'1010.2
2015-Jan-27 21:33N 51°20' E 002°21'1414.5
2015-Jan-27 20:34N 51°13' E 002°01'1515.1
2015-Jan-27 19:34N 51°03' E 001°42'1716.5
2015-Jan-27 18:33N 50°50' E 001°26'1716.4
2015-Jan-27 17:32N 50°36' E 001°11'1817.5
2015-Jan-27 16:32N 50°27' E 000°48'1917.5
2015-Jan-27 15:26N 50°22' E 000°19'80216.1
2015-Jan-25 13:30N 39°07' W 009°52'1617.2
2015-Jan-25 12:33N 38°51' W 009°52'1717.0
2015-Jan-25 11:33N 38°34' W 009°47'1817.4
2015-Jan-25 10:32N 38°17' W 009°42'1717.5
2015-Jan-25 09:34N 38°00' W 009°37'1717.0
2015-Jan-25 08:33N 37°43' W 009°33'1717.0
2015-Jan-25 07:33N 37°27' W 009°28'1817.3
2015-Jan-25 06:31N 37°09' W 009°23'1816.7
2015-Jan-25 05:27N 36°52' W 009°17'1517.0
2015-Jan-25 04:33N 36°43' W 009°02'1717.1
2015-Jan-25 03:33N 36°38' W 008°41'1817.6
2015-Jan-25 02:33N 36°32' W 008°21'13817.0
2015-Jan-24 18:28N 35°57' W 005°35'1415.5
2015-Jan-24 17:34N 36°01' W 005°18'24017.0
2015-Jan-24 03:28N 37°10' W 000°32'17217.3
2015-Jan-23 17:33N 38°31' E 002°40'1716.9
2015-Jan-23 16:33N 38°39' E 002°59'1717.3
2015-Jan-23 15:33N 38°46' E 003°19'1717.0
2015-Jan-23 14:33N 38°54' E 003°39'1716.7
2015-Jan-23 13:32N 39°02' E 003°58'34716.9
2015-Jan-22 17:03N 43°09' E 009°20'917.3
2015-Jan-22 16:33N 43°13' E 009°31'1817.5
2015-Jan-22 15:33N 43°18' E 009°53'1717.2
2015-Jan-22 14:33N 43°30' E 010°11'7 7.0
2015-Jan-22 13:32N 43°35' E 010°18'0 0.0
2015-Jan-22 12:32N 43°35' E 010°18'0 0.0
2015-Jan-22 11:29N 43°35' E 010°18'0 0.0
2015-Jan-22 10:32N 43°35' E 010°18'0 0.0
2015-Jan-22 09:32N 43°35' E 010°18'0 0.0
2015-Jan-22 08:32N 43°35' E 010°18'0 0.0
2015-Jan-22 07:32N 43°35' E 010°18'0 0.0
2015-Jan-22 06:32N 43°35' E 010°18'0 0.0
2015-Jan-22 05:33N 43°35' E 010°18'4 3.8
2015-Jan-22 04:33N 43°31' E 010°16'1111.1
2015-Jan-22 03:34N 43°24' E 010°05'  
Track history (hours):
 
Tides and Currents Weather Stations Pressure Air Temp Water Temp Dewpoint Dewpoint Depression Visibility Wind Speed Wind Dir Waves Ship Positions

Tombarra

Last reported at 2015-Feb-01 03:33 UTC. Time now 2015-Feb-01 04:08 UTC.
Position N 57°45' E 010°57'.

Length 199 m; draft 8.6 m.

Type: Ship. MMSI: 232971000.

Date/timePositionNaut miles runAvg speedWind from/ knotsBaromVisibWave heightAir tempDewpointWater temp
2015-Feb-01 03:33N 57°45' E 010°57'1615.9
2015-Feb-01 02:33N 57°33' E 011°17'1615.8
2015-Feb-01 01:33N 57°20' E 011°32'1716.5
2015-Feb-01 00:33N 57°04' E 011°42'1716.7
2015-Jan-31 23:33N 56°49' E 011°53'1616.1
2015-Jan-31 22:33N 56°33' E 011°59'1616.0
2015-Jan-31 21:33N 56°18' E 012°07'1616.3
2015-Jan-31 20:33N 56°08' E 012°31'10 9.8
2015-Jan-31 19:33N 56°00' E 012°41'1414.5
2015-Jan-31 18:33N 55°47' E 012°52'1010.5
2015-Jan-31 17:33N 55°37' E 012°60'0 0.0
2015-Jan-31 16:33N 55°37' E 012°60'0 0.0
2015-Jan-31 15:33N 55°37' E 012°60'0 0.0
2015-Jan-31 14:33N 55°37' E 012°60'0 0.0
2015-Jan-31 13:33N 55°37' E 012°60'0 0.0
2015-Jan-31 12:33N 55°37' E 012°60'0 0.0
2015-Jan-31 11:33N 55°37' E 012°60'0 0.0
2015-Jan-31 10:33N 55°37' E 012°60'0 0.0
2015-Jan-31 09:30N 55°37' E 012°60'0 0.0
2015-Jan-31 08:33N 55°37' E 012°60'0 0.0
2015-Jan-31 07:33N 55°37' E 012°60'0 0.0
2015-Jan-31 06:33N 55°37' E 012°60'0 0.0
2015-Jan-31 05:33N 55°37' E 012°60'2 1.9
2015-Jan-31 04:33N 55°39' E 012°57'1010.1
2015-Jan-31 03:33N 55°48' E 012°50'1515.5
2015-Jan-31 02:34N 56°02' E 012°39'1110.7
2015-Jan-31 01:34N 56°09' E 012°25'10 9.8
2015-Jan-31 00:34N 56°15' E 012°10'1111.0
2015-Jan-30 23:34N 56°24' E 012°00'1111.4
2015-Jan-30 22:34N 56°35' E 011°56'1212.5
2015-Jan-30 21:34N 56°48' E 011°50'1211.7
2015-Jan-30 20:33N 56°59' E 011°43'9 9.5
2015-Jan-30 19:33N 57°07' E 011°37'1212.0
2015-Jan-30 18:34N 57°19' E 011°30'1313.2
2015-Jan-30 17:33N 57°30' E 011°18'1312.9
2015-Jan-30 16:33N 57°39' E 011°01'1313.4
2015-Jan-30 15:34N 57°47' E 010°40'1614.8
2015-Jan-30 14:27N 57°44' E 010°10'18514.2
2015-Jan-30 01:26N 55°30' E 006°20'1314.6
2015-Jan-30 00:32N 55°19' E 006°07'7114.2
2015-Jan-29 19:32N 54°18' E 005°03'1414.2
2015-Jan-29 18:33N 54°06' E 004°50'17614.6
2015-Jan-29 06:33N 51°29' E 002°41'1010.5
2015-Jan-29 05:33N 51°23' E 002°55'1211.6
2015-Jan-29 04:33N 51°20' E 003°13'0 0.5
2015-Jan-29 03:33N 51°20' E 003°13'1 1.2
2015-Jan-29 02:33N 51°19' E 003°13'0 0.0
2015-Jan-29 01:33N 51°19' E 003°13'0 0.0
2015-Jan-29 00:33N 51°19' E 003°13'0 0.0
2015-Jan-28 23:33N 51°19' E 003°13'0 0.0
2015-Jan-28 22:33N 51°19' E 003°13'0 0.0
2015-Jan-28 21:33N 51°19' E 003°13'0 0.0
2015-Jan-28 20:33N 51°19' E 003°13'0 0.0
2015-Jan-28 19:33N 51°19' E 003°13'0 0.0
2015-Jan-28 18:33N 51°19' E 003°13'0 0.0
2015-Jan-28 17:33N 51°19' E 003°13'1 0.7
2015-Jan-28 16:31N 51°18' E 003°14'0 0.0
2015-Jan-28 15:33N 51°18' E 003°14'0 0.0
2015-Jan-28 14:33N 51°18' E 003°14'0 0.0
2015-Jan-28 13:33N 51°18' E 003°14'0 0.0
2015-Jan-28 12:33N 51°18' E 003°14'0 0.0
2015-Jan-28 11:33N 51°18' E 003°14'0 0.0
2015-Jan-28 10:33N 51°18' E 003°14'0 0.0
2015-Jan-28 09:33N 51°18' E 003°14'0 0.0
2015-Jan-28 08:33N 51°18' E 003°14'0 0.0
2015-Jan-28 07:33N 51°18' E 003°14'0 0.0
2015-Jan-28 06:33N 51°18' E 003°14'0 0.0
2015-Jan-28 05:33N 51°18' E 003°14'0 0.0
2015-Jan-28 04:33N 51°18' E 003°14'1 0.8
2015-Jan-28 03:33N 51°19' E 003°14'1 1.4
2015-Jan-28 02:33N 51°20' E 003°13'3 3.1
2015-Jan-28 01:33N 51°23' E 003°11'8 7.8
2015-Jan-28 00:33N 51°23' E 002°58'5 4.9
2015-Jan-27 23:33N 51°22' E 002°51'9 8.6
2015-Jan-27 22:33N 51°22' E 002°37'1010.2
2015-Jan-27 21:33N 51°20' E 002°21'1414.5
2015-Jan-27 20:34N 51°13' E 002°01'1515.1
2015-Jan-27 19:34N 51°03' E 001°42'1716.5
2015-Jan-27 18:33N 50°50' E 001°26'1716.4
2015-Jan-27 17:32N 50°36' E 001°11'1817.5
2015-Jan-27 16:32N 50°27' E 000°48'1917.5
2015-Jan-27 15:26N 50°22' E 000°19'80216.1
2015-Jan-25 13:30N 39°07' W 009°52'1617.2
2015-Jan-25 12:33N 38°51' W 009°52'1717.0
2015-Jan-25 11:33N 38°34' W 009°47'1817.4
2015-Jan-25 10:32N 38°17' W 009°42'1717.5
2015-Jan-25 09:34N 38°00' W 009°37'1717.0
2015-Jan-25 08:33N 37°43' W 009°33'1717.0
2015-Jan-25 07:33N 37°27' W 009°28'1817.3
2015-Jan-25 06:31N 37°09' W 009°23'1816.7
2015-Jan-25 05:27N 36°52' W 009°17'1517.0
2015-Jan-25 04:33N 36°43' W 009°02'1717.1
2015-Jan-25 03:33N 36°38' W 008°41'1817.6
2015-Jan-25 02:33N 36°32' W 008°21'13817.0
2015-Jan-24 18:28N 35°57' W 005°35'1415.5
2015-Jan-24 17:34N 36°01' W 005°18'24017.0
2015-Jan-24 03:28N 37°10' W 000°32'17217.3
2015-Jan-23 17:33N 38°31' E 002°40'1716.9
2015-Jan-23 16:33N 38°39' E 002°59'1717.3
2015-Jan-23 15:33N 38°46' E 003°19'1717.0
2015-Jan-23 14:33N 38°54' E 003°39'1716.7
2015-Jan-23 13:32N 39°02' E 003°58'34716.9
2015-Jan-22 17:03N 43°09' E 009°20'917.3
2015-Jan-22 16:33N 43°13' E 009°31'1817.5
2015-Jan-22 15:33N 43°18' E 009°53'1717.2
2015-Jan-22 14:33N 43°30' E 010°11'7 7.0
2015-Jan-22 13:32N 43°35' E 010°18'0 0.0
2015-Jan-22 12:32N 43°35' E 010°18'0 0.0
2015-Jan-22 11:29N 43°35' E 010°18'0 0.0
2015-Jan-22 10:32N 43°35' E 010°18'0 0.0
2015-Jan-22 09:32N 43°35' E 010°18'0 0.0
2015-Jan-22 08:32N 43°35' E 010°18'0 0.0
2015-Jan-22 07:32N 43°35' E 010°18'0 0.0
2015-Jan-22 06:32N 43°35' E 010°18'0 0.0
2015-Jan-22 05:33N 43°35' E 010°18'4 3.8
2015-Jan-22 04:33N 43°31' E 010°16'1111.1
2015-Jan-22 03:34N 43°24' E 010°05'  

Dump ship's entire track history